createdAt,value
2023-04-12T00:02:07.555Z,7.63
2023-04-12T00:04:35.981Z,7.40
2023-04-12T00:07:05.998Z,7.70
2023-04-12T00:09:36.301Z,7.53
2023-04-12T00:12:06.182Z,8.10
2023-04-12T00:14:33.719Z,7.20
2023-04-12T00:17:01.330Z,7.93
2023-04-12T00:19:31.113Z,7.07
2023-04-12T00:21:59.122Z,7.93
2023-04-12T00:24:28.102Z,8.27
2023-04-12T00:26:56.245Z,7.93
2023-04-12T00:29:23.783Z,7.77
2023-04-12T00:31:51.308Z,7.23
2023-04-12T00:34:18.958Z,9.17
2023-04-12T00:36:47.697Z,6.83
2023-04-12T00:39:15.394Z,7.47
2023-04-12T00:41:44.276Z,6.47
2023-04-12T00:44:11.936Z,7.87
2023-04-12T00:46:39.765Z,6.90
2023-04-12T00:49:07.767Z,6.40
2023-04-12T00:51:35.343Z,8.10
2023-04-12T00:54:03.760Z,6.60
2023-04-12T00:56:32.286Z,6.73
2023-04-12T00:59:01.969Z,6.83
2023-04-12T01:01:31.878Z,6.67
2023-04-12T01:04:01.199Z,6.50
2023-04-12T01:06:37.998Z,5.80
2023-04-12T01:09:13.850Z,6.00
2023-04-12T01:11:46.250Z,6.40
2023-04-12T01:14:23.777Z,7.13
2023-04-12T01:16:52.193Z,6.70
2023-04-12T01:19:35.576Z,6.47
2023-04-12T01:22:13.339Z,6.80
2023-04-12T01:24:48.916Z,7.20
2023-04-12T01:27:29.797Z,5.80
2023-04-12T01:29:57.897Z,5.60
2023-04-12T01:32:27.005Z,6.07
2023-04-12T01:34:56.011Z,6.13
2023-04-12T01:37:23.796Z,6.63
2023-04-12T01:39:51.635Z,5.83
2023-04-12T01:42:20.073Z,5.13
2023-04-12T01:44:49.509Z,6.30
2023-04-12T01:47:17.577Z,5.93
2023-04-12T01:49:50.990Z,5.77
2023-04-12T01:52:21.316Z,5.97
2023-04-12T01:54:52.314Z,5.90
2023-04-12T01:57:20.504Z,6.30
2023-04-12T01:59:50.219Z,5.80
2023-04-12T02:02:17.873Z,5.03
2023-04-12T02:04:45.628Z,4.83
2023-04-12T02:07:14.540Z,5.30
2023-04-12T02:09:42.101Z,5.33
2023-04-12T02:12:10.105Z,5.80
2023-04-12T02:14:37.862Z,5.10
2023-04-12T02:17:08.009Z,4.73
2023-04-12T02:19:36.224Z,5.77
2023-04-12T02:22:04.477Z,5.60
2023-04-12T02:24:32.401Z,4.90
2023-04-12T02:27:01.319Z,6.00
2023-04-12T02:29:29.453Z,5.13
2023-04-12T02:31:57.444Z,5.23
2023-04-12T02:34:34.226Z,5.83
2023-04-12T02:37:13.626Z,5.43
2023-04-12T02:39:41.357Z,5.37
2023-04-12T02:42:11.356Z,5.47
2023-04-12T02:44:41.096Z,4.97
2023-04-12T02:47:12.655Z,6.17
2023-04-12T02:49:44.466Z,5.20
2023-04-12T02:52:15.531Z,4.33
2023-04-12T02:54:58.267Z,4.43
2023-04-12T02:57:25.918Z,4.80
2023-04-12T02:59:54.080Z,5.20
2023-04-12T03:02:49.948Z,4.50
2023-04-12T03:05:24.698Z,3.80
2023-04-12T03:07:53.042Z,4.63
2023-04-12T03:10:26.860Z,3.50
2023-04-12T03:13:02.694Z,4.60
2023-04-12T03:15:34.764Z,4.00
2023-04-12T03:18:03.064Z,4.00
2023-04-12T03:20:36.600Z,4.10
2023-04-12T03:23:09.776Z,4.20
2023-04-12T03:25:42.459Z,4.37
2023-04-12T03:28:28.497Z,4.20
2023-04-12T03:30:57.299Z,4.40
2023-04-12T03:33:31.165Z,3.67
2023-04-12T03:36:05.142Z,4.27
2023-04-12T03:38:32.948Z,4.03
2023-04-12T03:41:00.868Z,4.20
2023-04-12T03:43:37.405Z,3.47
2023-04-12T03:46:11.162Z,3.70
2023-04-12T03:48:39.007Z,3.80
2023-04-12T03:51:12.004Z,2.80
2023-04-12T03:53:43.933Z,2.57
2023-04-12T03:56:15.550Z,3.13
2023-04-12T03:58:46.102Z,2.90
2023-04-12T04:01:14.970Z,3.10
2023-04-12T04:03:45.894Z,2.80
2023-04-12T04:06:22.329Z,2.97
2023-04-12T04:08:51.946Z,3.27
2023-04-12T04:11:19.563Z,3.30
2023-04-12T04:13:51.478Z,2.60
2023-04-12T04:16:20.893Z,2.70
2023-04-12T04:18:50.331Z,2.17
2023-04-12T04:21:22.290Z,2.20
2023-04-12T04:23:54.486Z,2.37
2023-04-12T04:26:33.105Z,2.67
2023-04-12T04:29:11.852Z,2.63
2023-04-12T04:31:40.315Z,2.60
2023-04-12T04:34:11.666Z,2.20
2023-04-12T04:36:45.602Z,3.00
2023-04-12T04:39:17.848Z,3.30
2023-04-12T04:41:46.724Z,2.30
2023-04-12T04:44:23.521Z,3.00
2023-04-12T04:46:56.569Z,2.70
2023-04-12T04:49:24.108Z,2.17
2023-04-12T04:51:53.156Z,2.30
2023-04-12T04:54:21.813Z,2.33
2023-04-12T04:56:49.361Z,2.30
2023-04-12T04:59:19.998Z,3.00
2023-04-12T05:01:47.705Z,2.30
2023-04-12T05:04:17.424Z,2.23
2023-04-12T05:06:45.071Z,3.00
2023-04-12T05:09:15.840Z,2.67
2023-04-12T05:11:48.885Z,2.37
2023-04-12T05:14:16.958Z,2.67
2023-04-12T05:16:44.541Z,3.10
2023-04-12T05:19:12.248Z,2.80
2023-04-12T05:21:40.874Z,2.27
2023-04-12T05:24:11.523Z,2.27
2023-04-12T05:26:42.187Z,2.73
2023-04-12T05:29:14.264Z,2.10
2023-04-12T05:31:42.693Z,2.97
2023-04-12T05:34:17.680Z,4.53
2023-04-12T05:36:52.770Z,2.27
2023-04-12T05:39:21.227Z,1.90
2023-04-12T05:41:51.759Z,2.10
2023-04-12T05:44:21.927Z,2.20
2023-04-12T05:46:49.553Z,2.10
2023-04-12T05:49:17.976Z,2.93
2023-04-12T05:51:45.710Z,2.50
2023-04-12T05:54:21.613Z,2.13
2023-04-12T05:56:54.411Z,1.97
2023-04-12T05:59:22.771Z,2.70
2023-04-12T06:01:50.909Z,2.13
2023-04-12T06:04:21.094Z,2.10
2023-04-12T06:06:49.701Z,2.30
2023-04-12T06:09:17.555Z,2.80
2023-04-12T06:11:45.327Z,2.30
2023-04-12T06:14:14.874Z,2.53
2023-04-12T06:16:42.932Z,2.00
2023-04-12T06:19:11.340Z,2.40
2023-04-12T06:21:39.044Z,2.30
2023-04-12T06:24:08.242Z,2.47
2023-04-12T06:26:39.923Z,2.23
2023-04-12T06:29:09.386Z,2.17
2023-04-12T06:31:38.943Z,2.60
2023-04-12T06:34:07.435Z,3.77
2023-04-12T06:36:40.066Z,1.70
2023-04-12T06:39:07.969Z,2.43
2023-04-12T06:41:35.753Z,2.13
2023-04-12T06:44:03.661Z,1.80
2023-04-12T06:46:32.675Z,2.33
2023-04-12T06:49:01.705Z,2.30
2023-04-12T06:51:29.584Z,2.80
2023-04-12T06:53:57.768Z,2.73
2023-04-12T06:56:25.779Z,2.47
2023-04-12T06:58:53.637Z,2.60
2023-04-12T07:01:21.573Z,2.70
2023-04-12T07:03:49.610Z,2.87
2023-04-12T07:06:25.059Z,2.43
2023-04-12T07:08:53.953Z,2.60
2023-04-12T07:11:23.262Z,2.40
2023-04-12T07:13:51.625Z,3.57
2023-04-12T07:16:19.750Z,2.67
2023-04-12T07:18:47.640Z,2.63
2023-04-12T07:21:17.454Z,2.33
2023-04-12T07:23:51.052Z,2.47
2023-04-12T07:26:19.036Z,2.67
2023-04-12T07:28:46.768Z,2.00
2023-04-12T07:31:14.359Z,2.60
2023-04-12T07:33:43.331Z,3.47
2023-04-12T07:36:12.434Z,2.60
2023-04-12T07:38:40.496Z,2.30
2023-04-12T07:41:10.921Z,3.10
2023-04-12T07:43:38.568Z,2.90
2023-04-12T07:46:08.649Z,2.13
2023-04-12T07:48:36.747Z,2.93
2023-04-12T07:51:05.024Z,3.23
2023-04-12T07:53:32.714Z,2.73
2023-04-12T07:56:00.341Z,2.33
2023-04-12T07:58:29.314Z,2.83
2023-04-12T08:00:59.163Z,2.80
2023-04-12T08:03:28.626Z,2.60
2023-04-12T08:05:56.476Z,3.20
2023-04-12T08:08:24.159Z,2.53
2023-04-12T08:10:52.538Z,2.27
2023-04-12T08:13:20.869Z,2.90
2023-04-12T08:15:50.011Z,2.93
2023-04-12T08:18:17.736Z,2.60
2023-04-12T08:20:45.723Z,2.87
2023-04-12T08:23:13.597Z,2.70
2023-04-12T08:25:42.043Z,2.70
2023-04-12T08:28:09.994Z,2.70
2023-04-12T08:30:37.863Z,2.40
2023-04-12T08:33:06.922Z,3.23
2023-04-12T08:35:34.824Z,3.50
2023-04-12T08:38:07.426Z,3.00
2023-04-12T08:40:35.173Z,3.40
2023-04-12T08:43:03.517Z,2.50
2023-04-12T08:45:34.019Z,2.83
2023-04-12T08:48:03.995Z,2.43
2023-04-12T08:50:33.350Z,2.70
2023-04-12T08:53:01.170Z,2.73
2023-04-12T08:55:29.436Z,3.30
2023-04-12T08:57:57.519Z,2.50
2023-04-12T09:00:25.962Z,2.70
2023-04-12T09:02:53.841Z,2.70
2023-04-12T09:05:23.004Z,2.73
2023-04-12T09:07:52.178Z,2.37
2023-04-12T09:10:32.660Z,2.80
2023-04-12T09:13:00.559Z,2.70
2023-04-12T09:15:28.345Z,2.90
2023-04-12T09:18:07.425Z,2.97
2023-04-12T09:20:35.178Z,2.13
2023-04-12T09:23:18.129Z,2.83
2023-04-12T09:25:48.174Z,2.53
2023-04-12T09:28:21.038Z,2.10
2023-04-12T09:30:51.718Z,2.70
2023-04-12T09:33:20.679Z,2.80
2023-04-12T09:35:48.615Z,2.97
2023-04-12T09:38:17.791Z,2.20
2023-04-12T09:40:45.614Z,2.37
2023-04-12T09:43:13.229Z,3.53
2023-04-12T09:45:41.164Z,2.70
2023-04-12T09:48:09.142Z,2.60
2023-04-12T09:50:36.759Z,2.07
2023-04-12T09:53:06.273Z,2.57
2023-04-12T09:55:35.914Z,3.27
2023-04-12T09:58:07.548Z,3.77
2023-04-12T10:00:35.674Z,2.37
2023-04-12T10:03:04.660Z,2.67
2023-04-12T10:05:32.474Z,2.90
2023-04-12T10:08:02.397Z,2.60
2023-04-12T10:10:31.771Z,2.40
2023-04-12T10:13:02.207Z,2.77
2023-04-12T10:15:30.624Z,2.33
2023-04-12T10:18:03.782Z,2.40
2023-04-12T10:20:31.563Z,2.40
2023-04-12T10:23:02.309Z,2.33
2023-04-12T10:25:31.560Z,2.50
2023-04-12T10:28:14.662Z,2.50
2023-04-12T10:30:42.875Z,2.27
2023-04-12T10:33:17.861Z,2.40
2023-04-12T10:36:00.513Z,2.70
2023-04-12T10:38:35.261Z,1.70
2023-04-12T10:41:24.985Z,2.60
2023-04-12T10:43:54.034Z,2.90
2023-04-12T10:46:50.321Z,3.50
2023-04-12T10:49:18.378Z,2.43
2023-04-12T10:52:15.210Z,3.10
2023-04-12T10:54:43.400Z,2.23
2023-04-12T10:57:49.348Z,2.53
2023-04-12T11:00:20.302Z,2.77
2023-04-12T11:03:12.657Z,2.13
2023-04-12T11:06:06.753Z,3.00
2023-04-12T11:08:59.735Z,2.63
2023-04-12T11:11:28.201Z,2.93
2023-04-12T11:13:59.200Z,2.67
2023-04-12T11:16:28.215Z,4.53
2023-04-12T11:18:56.856Z,2.80
2023-04-12T11:21:25.506Z,3.10
2023-04-12T11:23:54.518Z,3.23
2023-04-12T11:26:22.689Z,3.00
2023-04-12T11:28:53.129Z,3.20
2023-04-12T11:31:21.479Z,4.00
2023-04-12T11:33:50.807Z,4.10
2023-04-12T11:36:18.645Z,3.60
2023-04-12T11:38:48.235Z,4.43
2023-04-12T11:41:16.853Z,5.00
2023-04-12T11:43:44.615Z,4.30
2023-04-12T11:46:12.422Z,4.23
2023-04-12T11:48:40.589Z,4.17
2023-04-12T11:51:31.683Z,4.67
2023-04-12T11:54:00.517Z,4.73
2023-04-12T11:56:32.428Z,4.53
2023-04-12T11:59:03.518Z,4.83
2023-04-12T12:01:32.206Z,4.27
2023-04-12T12:04:00.832Z,5.17
2023-04-12T12:06:31.505Z,4.13
2023-04-12T12:08:59.596Z,5.10
2023-04-12T12:11:27.738Z,5.50
2023-04-12T12:13:56.939Z,5.30
2023-04-12T12:16:26.378Z,6.87
2023-04-12T12:18:54.536Z,5.00
2023-04-12T12:21:22.891Z,5.90
2023-04-12T12:23:52.043Z,4.80
2023-04-12T12:26:23.748Z,4.23
2023-04-12T12:28:52.721Z,5.50
2023-04-12T12:31:30.266Z,4.30
2023-04-12T12:33:59.601Z,5.83
2023-04-12T12:36:32.664Z,5.60
2023-04-12T12:39:07.840Z,4.57
2023-04-12T12:41:35.612Z,4.87
2023-04-12T12:44:03.384Z,4.23
2023-04-12T12:46:48.338Z,5.03
2023-04-12T12:49:18.954Z,5.40
2023-04-12T12:51:48.002Z,4.60
2023-04-12T12:54:36.175Z,4.70
2023-04-12T12:57:05.716Z,4.57
2023-04-12T12:59:33.402Z,4.83
2023-04-12T13:02:01.110Z,4.70
2023-04-12T13:04:29.595Z,6.00
2023-04-12T13:06:57.750Z,4.50
2023-04-12T13:09:26.872Z,4.80
2023-04-12T13:11:54.541Z,5.50
2023-04-12T13:14:22.174Z,5.40
2023-04-12T13:16:49.934Z,5.13
2023-04-12T13:19:17.742Z,5.33
2023-04-12T13:21:45.385Z,4.13
2023-04-12T13:24:12.986Z,4.33
2023-04-12T13:26:43.353Z,4.57
2023-04-12T13:29:11.083Z,4.17
2023-04-12T13:31:38.801Z,4.30
2023-04-12T13:34:06.615Z,4.17
2023-04-12T13:36:34.250Z,3.97
2023-04-12T13:39:02.216Z,3.23
2023-04-12T13:44:00.290Z,2.90
2023-04-12T13:46:28.301Z,3.63
2023-04-12T13:48:57.668Z,2.50
2023-04-12T13:51:26.518Z,2.50
2023-04-12T13:53:54.805Z,3.30
2023-04-12T13:56:22.591Z,2.87
2023-04-12T13:58:52.429Z,2.90
2023-04-12T14:01:25.181Z,2.77
2023-04-12T14:03:53.537Z,2.53
2023-04-12T14:06:21.109Z,2.63
2023-04-12T14:08:49.002Z,2.47
2023-04-12T14:11:16.582Z,2.67
2023-04-12T14:13:44.173Z,2.60
2023-04-12T14:16:12.045Z,3.50
2023-04-12T14:18:41.348Z,3.00
2023-04-12T14:21:10.478Z,3.20
2023-04-12T14:23:38.343Z,4.10
2023-04-12T14:26:06.597Z,3.53
2023-04-12T14:28:35.918Z,3.60
2023-04-12T14:31:06.259Z,3.80
2023-04-12T14:33:34.375Z,4.77
2023-04-12T14:36:05.006Z,3.90
2023-04-12T14:38:32.922Z,4.60
2023-04-12T14:41:01.092Z,4.20
2023-04-12T14:43:29.139Z,4.60
2023-04-12T14:45:57.025Z,3.80
2023-04-12T14:48:24.825Z,4.03
2023-04-12T14:50:52.638Z,3.90
2023-04-12T14:53:22.301Z,4.67
2023-04-12T14:55:50.365Z,3.60
2023-04-12T14:58:18.396Z,4.20
2023-04-12T15:00:46.649Z,4.47
2023-04-12T15:03:16.739Z,4.77
2023-04-12T15:05:44.943Z,4.40
2023-04-12T15:08:12.693Z,4.10
2023-04-12T15:10:42.060Z,3.90
2023-04-12T15:13:09.699Z,4.33
2023-04-12T15:15:37.830Z,3.97
2023-04-12T15:18:06.003Z,4.00
2023-04-12T15:20:33.866Z,3.83
2023-04-12T15:23:01.928Z,3.47
2023-04-12T15:25:30.911Z,3.60
2023-04-12T15:28:01.435Z,3.30
2023-04-12T15:30:29.611Z,3.57
2023-04-12T15:32:58.661Z,3.47
2023-04-12T15:35:27.421Z,3.47
2023-04-12T15:37:55.894Z,3.10
2023-04-12T15:40:24.443Z,3.00
2023-04-12T15:42:52.478Z,3.00
2023-04-12T15:45:22.083Z,3.07
2023-04-12T15:47:49.878Z,3.50
2023-04-12T15:50:21.768Z,3.83
2023-04-12T15:52:51.537Z,3.03
2023-04-12T15:55:22.101Z,3.43
2023-04-12T15:57:50.520Z,3.87
2023-04-12T16:00:25.248Z,4.13
2023-04-12T16:02:54.679Z,4.03
2023-04-12T16:05:23.019Z,3.87
2023-04-12T16:07:51.136Z,3.67
2023-04-12T16:10:21.027Z,4.23
2023-04-12T16:12:49.684Z,3.70
2023-04-12T16:15:18.132Z,3.90
2023-04-12T16:17:48.650Z,3.80
2023-04-12T16:20:21.980Z,3.60
2023-04-12T16:22:55.387Z,4.77
2023-04-12T16:25:28.332Z,3.80
2023-04-12T16:27:57.834Z,3.70
2023-04-12T16:30:28.733Z,3.80
2023-04-12T16:33:00.882Z,4.23
2023-04-12T16:35:33.361Z,4.50
2023-04-12T16:38:02.165Z,3.53
2023-04-12T16:40:31.325Z,4.60
2023-04-12T16:43:02.339Z,3.47
2023-04-12T16:45:33.232Z,3.70
2023-04-12T16:48:03.758Z,3.67
2023-04-12T16:50:32.074Z,4.23
2023-04-12T16:53:01.942Z,3.60
2023-04-12T16:55:30.905Z,3.50
2023-04-12T16:57:58.965Z,3.57
2023-04-12T17:00:29.475Z,4.23
2023-04-12T17:02:58.401Z,3.83
2023-04-12T17:05:28.174Z,4.37
2023-04-12T17:07:58.829Z,4.57
2023-04-12T17:10:27.459Z,4.10
2023-04-12T17:12:56.576Z,3.97
2023-04-12T17:15:25.568Z,3.70
2023-04-12T17:17:54.497Z,4.10
2023-04-12T17:20:23.115Z,4.00
2023-04-12T17:22:53.210Z,4.40
2023-04-12T17:25:22.076Z,4.23
2023-04-12T17:27:53.511Z,4.23
2023-04-12T17:30:21.191Z,3.83
2023-04-12T17:32:49.159Z,4.70
2023-04-12T17:35:17.753Z,5.03
2023-04-12T17:37:45.750Z,4.63
2023-04-12T17:40:15.347Z,5.07
2023-04-12T17:42:44.404Z,5.20
2023-04-12T17:45:14.483Z,5.50
2023-04-12T17:47:42.806Z,5.50
2023-04-12T17:50:11.780Z,4.93
2023-04-12T17:52:39.860Z,5.60
2023-04-12T17:55:13.132Z,4.70
2023-04-12T17:57:44.353Z,5.30
2023-04-12T18:00:13.414Z,4.97
2023-04-12T18:02:42.136Z,5.00
2023-04-12T18:05:11.428Z,4.90
2023-04-12T18:07:42.157Z,5.60
2023-04-12T18:10:12.751Z,5.47
2023-04-12T18:12:44.197Z,5.57
2023-04-12T18:15:12.758Z,5.10
2023-04-12T18:17:40.958Z,4.97
2023-04-12T18:20:11.308Z,5.43
2023-04-12T18:22:39.343Z,5.40
2023-04-12T18:25:09.032Z,5.20
2023-04-12T18:27:37.544Z,5.70
2023-04-12T18:30:08.461Z,4.83
2023-04-12T18:32:36.272Z,4.70
2023-04-12T18:35:05.069Z,5.67
2023-04-12T18:37:32.979Z,4.97
2023-04-12T18:40:01.360Z,5.83
2023-04-12T18:42:29.209Z,4.63
2023-04-12T18:44:58.230Z,5.10
2023-04-12T18:47:28.799Z,6.00
2023-04-12T18:49:56.706Z,5.90
2023-04-12T18:52:24.797Z,6.13
2023-04-12T18:54:53.056Z,5.63
2023-04-12T18:57:21.977Z,5.97
2023-04-12T18:59:51.424Z,7.10
2023-04-12T19:02:20.271Z,6.40
2023-04-12T19:04:49.726Z,7.20
2023-04-12T19:07:33.473Z,6.97
2023-04-12T19:10:01.790Z,6.40
2023-04-12T19:12:30.366Z,6.63
2023-04-12T19:14:58.597Z,6.30
2023-04-12T19:17:28.489Z,4.37
2023-04-12T19:19:58.160Z,2.80
2023-04-12T19:22:27.978Z,3.57
2023-04-12T19:24:56.351Z,3.00
2023-04-12T19:27:24.352Z,2.60
2023-04-12T19:29:52.766Z,2.90
2023-04-12T19:32:20.819Z,2.73
2023-04-12T19:34:49.019Z,2.80
2023-04-12T19:37:18.253Z,2.70
2023-04-12T19:39:47.124Z,2.90
2023-04-12T19:42:16.171Z,3.60
2023-04-12T19:44:44.187Z,4.70
2023-04-12T19:47:21.092Z,4.73
2023-04-12T19:49:54.744Z,5.40
2023-04-12T19:52:23.871Z,5.17
2023-04-12T19:54:52.568Z,4.00
2023-04-12T19:57:20.728Z,2.57
2023-04-12T19:59:48.519Z,2.73
2023-04-12T20:02:17.133Z,2.57
2023-04-12T20:04:45.099Z,2.27
2023-04-12T20:07:12.961Z,2.97
2023-04-12T20:09:42.441Z,1.93
2023-04-12T20:12:10.525Z,2.70
2023-04-12T20:14:39.488Z,2.30
2023-04-12T20:17:08.054Z,2.07
2023-04-12T20:19:38.400Z,2.07
2023-04-12T20:22:06.776Z,1.80
2023-04-12T20:24:37.630Z,1.73
2023-04-12T20:27:07.434Z,2.27
2023-04-12T20:29:36.236Z,2.03
2023-04-12T20:32:04.408Z,2.37
2023-04-12T20:34:32.366Z,2.20
2023-04-12T20:37:00.334Z,1.80
2023-04-12T20:39:29.674Z,2.10
2023-04-12T20:42:01.048Z,2.40
2023-04-12T20:44:30.384Z,2.47
2023-04-12T20:46:58.663Z,2.10
2023-04-12T20:49:27.839Z,2.77
2023-04-12T20:51:58.740Z,1.80
2023-04-12T20:54:29.929Z,1.83
2023-04-12T20:56:58.721Z,1.73
2023-04-12T20:59:30.408Z,2.37
2023-04-12T21:02:00.432Z,2.50
2023-04-12T21:04:28.517Z,1.80
2023-04-12T21:06:57.497Z,2.07
2023-04-12T21:09:25.630Z,1.90
2023-04-12T21:11:53.506Z,2.43
2023-04-12T21:14:21.519Z,2.80
2023-04-12T21:16:49.651Z,4.03
2023-04-12T21:19:19.173Z,2.37
2023-04-12T21:21:47.323Z,2.43
2023-04-12T21:24:15.020Z,2.40
2023-04-12T21:26:43.842Z,2.13
2023-04-12T21:29:11.662Z,1.70
2023-04-12T21:31:41.552Z,2.00
2023-04-12T21:34:10.167Z,2.63
2023-04-12T21:36:39.910Z,2.37
2023-04-12T21:39:07.787Z,2.37
2023-04-12T21:41:37.173Z,2.60
2023-04-12T21:44:04.909Z,2.37
2023-04-12T21:46:32.653Z,2.63
2023-04-12T21:49:00.456Z,3.53
2023-04-12T21:51:28.423Z,2.50
2023-04-12T21:53:57.466Z,3.00
2023-04-12T21:56:25.179Z,2.93
2023-04-12T21:58:53.036Z,3.30
2023-04-12T22:01:20.986Z,3.00
2023-04-12T22:03:48.769Z,3.00
2023-04-12T22:06:19.226Z,3.10
2023-04-12T22:08:48.052Z,2.90
2023-04-12T22:11:17.263Z,2.90
2023-04-12T22:13:46.723Z,2.53
2023-04-12T22:16:16.908Z,3.10
2023-04-12T22:18:45.558Z,2.63
2023-04-12T22:21:13.329Z,2.80
2023-04-12T22:23:41.362Z,3.00
2023-04-12T22:26:09.413Z,3.37
2023-04-12T22:28:39.294Z,2.70
2023-04-12T22:31:08.258Z,3.50
2023-04-12T22:33:37.217Z,2.60
2023-04-12T22:36:06.091Z,3.30
2023-04-12T22:38:35.199Z,8.30
2023-04-12T22:41:06.460Z,4.00
2023-04-12T22:43:41.616Z,2.47
2023-04-12T22:46:16.226Z,3.47
2023-04-12T22:48:44.224Z,3.37
2023-04-12T22:51:11.986Z,3.60
2023-04-12T22:53:39.772Z,3.33
2023-04-12T22:56:08.814Z,3.70
2023-04-12T22:58:39.958Z,3.10
2023-04-12T23:01:08.014Z,3.30
2023-04-12T23:03:36.572Z,2.80
2023-04-12T23:06:05.159Z,3.37
2023-04-12T23:08:32.877Z,3.80
2023-04-12T23:11:03.478Z,3.23
2023-04-12T23:13:33.756Z,3.30
2023-04-12T23:16:03.408Z,3.40
2023-04-12T23:18:31.365Z,4.17
2023-04-12T23:21:00.971Z,3.80
2023-04-12T23:23:28.723Z,3.87
2023-04-12T23:25:56.492Z,4.03
2023-04-12T23:28:26.552Z,4.90
2023-04-12T23:30:54.302Z,4.83
2023-04-12T23:33:25.129Z,5.00
2023-04-12T23:35:53.393Z,4.97
2023-04-12T23:38:24.389Z,4.77
2023-04-12T23:40:54.506Z,6.00
2023-04-12T23:43:22.969Z,8.97
2023-04-12T23:45:50.825Z,11.90
2023-04-12T23:48:18.825Z,11.80
2023-04-12T23:50:48.384Z,13.10
2023-04-12T23:53:16.782Z,15.43
2023-04-12T23:55:45.388Z,15.50
2023-04-12T23:58:13.085Z,14.87
